KMOX/MOX METAR and TAF weather

Enter ICAO airport designator
Station Type Date Time Source
KMOX METAR 2020/01/26 19:07 UTC NOAA

KMOX 261907Z AUTO 11006KT 7SM SCT036 BKN044 M03/M06 A2987 RMK AO2 TSNO


Station Type Date Time Source
KMOX Decoded METAR 2020/01/26 19:07 UTC NOAA

Morris, Morris Municipal Airport, MN, United States (KMOX) 45-34N 095-58W
Jan 26, 2020 - 02:07 PM EST / 2020.01.26 1907 UTC
Wind: from the ESE (110 degrees) at 7 MPH (6 KT):0
Visibility: 7 mile(s):0
Sky conditions: mostly cloudy
Temperature: 26 F (-3 C)
Windchill: 17 F (-8 C):1
Dew Point: 21 F (-6 C)
Relative Humidity: 79%
Pressure (altimeter): 29.87 in. Hg (1011 hPa)
ob: KMOX 261907Z AUTO 11006KT 7SM SCT036 BKN044 M03/M06 A2987 RMK AO2 TSNO
cycle: 19

Station Type Date Time Source
KMOX TAF UTC NOAA

Error!

Example: see airport list